Tiempo atmosférico en la estación meteorológica de Alcala de Henares, Madrid (605 m.)



Fecha
DESCASC
Temp. máxima en grados centígrados (hora)
DESCASC
Temp. mínima en grados centígrados (hora)
DESCASC
Temp. media en grados centígrados
DESCASC
Racha de viento máxima en m/sg (hora)
DESCASC
Velocidad máxima media en intervalos de 10 minutos(hora)
DESCASC
Precipitaciones diarias en mm
DESCASC
Precipitaciones de 00:00 a 06:00 en mm
DESCASC
Precipitaciones de 06:00 a 12:00 en mm
DESCASC
Precipitaciones de 12:00 a 18:00 en mm
DESCASC
Precipitaciones de 18:00 a 24:00 en mm
DESCASC
15-08-2019 36.5 (19:10) 16.6 (07:20) 26.6 10 (23:20) 7.22 (23:20) 0 0 0 0 0
14-08-2019 34.2 (18:30) 13.9 (00:00) 24.1 6.67 (14:20) 3.61 (14:20) 0 0 0 0 0
13-08-2019 31.1 (18:50) 13.9 (00:00) 22.5 9.72 (00:10) 6.67 (01:30) 0 0 0 0 0
12-08-2019 28.6 (17:40) 11.8 (00:00) 20.2 11.94 (18:30) 6.39 (23:00) 0 0 0 0 0
11-08-2019 30.8 (18:00) 15.4 (00:00) 23.1 11.39 (15:00) 7.22 (15:10) 0 0 0 0 0
10-08-2019 32.9 (18:10) 16.9 (00:00) 24.9 10.83 (17:20) 6.39 (17:40) 0 0 0 0 0
09-08-2019 32.6 (16:50) 19.7 (00:00) 26.1 15 (18:10) 9.44 (18:10) 0 0 0 0 0
08-08-2019 34.7 (18:30) 16.1 (00:00) 25.4 10.83 (18:20) 7.22 (19:10) 0 0 0 0 0
07-08-2019 28.6 (00:00) 22.1 (00:00) 25.4 9.17 (20:30) 6.11 (13:50) 0 0 0 0 0
06-08-2019 36.9 (17:20) 15.7 (00:00) 26.3 10.28 (15:10) 6.39 (19:00) 0 0 0 0 0
05-08-2019 36.7 (16:40) 16.1 (00:00) 26.4 9.72 (17:20) 6.11 (17:20) 0 0 0 0 0
04-08-2019 36.8 (18:10) 16 (00:00) 26.4 10.83 (14:10) 6.39 (15:00) 0 0 0 0 0
03-08-2019 36.8 (17:40) 18.2 (00:00) 27.5 10.56 (17:50) 6.39 (16:40) 0 0 0 0 0
02-08-2019 36.6 (18:00) 18.6 (00:00) 27.6 7.22 (17:40) 3.89 (16:00) 0 0 0 0 0
01-08-2019 35 (17:40) 19.4 (00:00) 27.2 11.39 (13:30) 5.83 (18:20) 0 0 0 0 0
31-07-2019 35.3 (17:00) 15.7 (00:00) 25.5 13.06 (00:50) 8.61 (00:50) 0 0 0 0 0
30-07-2019 32.5 (17:30) 13.3 (00:00) 22.9 11.39 (23:30) 7.5 (23:40) 0 0 0 0 0
29-07-2019 34.1 (17:20) 15.5 (00:00) 24.8 11.94 (17:00) 7.22 (15:10) 0 0 0 0 0
28-07-2019 31 (18:20) 13.4 (00:00) 22.2 9.17 (01:50) 6.11 (01:50) 0 0 0 0 0
27-07-2019 28.4 (17:50) 15.1 (00:00) 21.8 14.17 (16:20) 9.17 (16:20) 0 0 0 0 0
26-07-2019 32.2 (18:30) 21.5 (00:00) 26.9 11.11 (16:50) 6.94 (15:10) 0 0 0 0 0
25-07-2019 37.3 (18:30) 24.2 (00:00) 30.8 13.89 (02:40) 8.33 (03:30) 0 0 0 0 0
24-07-2019 39 (17:40) 19.2 (00:00) 29.1 15 (02:30) 9.17 (02:30) 0 0 0 0 0
23-07-2019 39.5 (17:30) 21.7 (00:00) 30.6 17.78 (20:30) 11.39 (20:20) 0 0 0 0 0
22-07-2019 38.7 (17:20) 20.3 (00:00) 29.5 13.89 (01:00) 8.61 (01:10) 0 0 0 0 0
21-07-2019 39.8 (17:30) 21.9 (00:00) 30.8 15.56 (00:30) 10.28 (02:00) 0 0 0 0 0
20-07-2019 38.5 (17:10) 20.3 (00:00) 29.4 12.78 (00:50) 8.33 (01:00) 0 0 0 0 0
19-07-2019 38 (17:40) 20.4 (00:00) 29.2 11.11 (23:20) 7.22 (23:30) 0 0 0 0 0

Gráficas

Temp. máximas Temp. mínimas Temp. medias Precipitaciones Rachas de viento máximas Velocidades máximas media en intervalos de 10 minutos

Datos horarios

Fecha y hora oficial Temperatura (ºC) Velocidad del viento (km/h) Dirección del viento Racha (km/h) Dirección de racha Precipitación (mm) Presión (hPa) Tendencia (hPa) Humedad (%)
2019-08-17 23:00:00 26 3 Este 5 Este 0 -- -- 32
2019-08-17 22:00:00 29.5 3 Sudoeste 14 Oeste 0 -- -- 27
2019-08-17 21:00:00 33.7 11 Oeste 30 Oeste 0 -- -- 21
2019-08-17 20:00:00 36.2 13 Oeste 31 Oeste 0 -- -- 21
2019-08-17 19:00:00 37 18 Oeste 35 Sudoeste 0 -- -- 19
2019-08-17 18:00:00 37.5 21 Oeste 36 Oeste 0 -- -- 19
2019-08-17 17:00:00 37.3 19 Oeste 39 Oeste 0 -- -- 19
2019-08-17 16:00:00 36.9 21 Oeste 38 Sudoeste 0 -- -- 19
2019-08-17 15:00:00 36.3 20 Oeste 39 Oeste 0 -- -- 22
2019-08-17 14:00:00 36.1 13 Sudoeste 33 Oeste 0 -- -- 22
2019-08-17 13:00:00 34.4 14 Oeste 24 Oeste 0 -- -- 25
2019-08-17 12:00:00 32.2 5 Sudoeste 13 Oeste 0 -- -- 30
2019-08-17 11:00:00 29.1 4 Noroeste 9 Nordeste 0 -- -- 36
2019-08-17 10:00:00 25.3 6 Este 15 Este 0 -- -- 41
2019-08-17 09:00:00 20.6 9 Este 15 Nordeste 0 -- -- 49
2019-08-17 08:00:00 17 5 Nordeste 11 Este 0 -- -- 57
2019-08-17 07:00:00 17.5 3 Este 9 Sudoeste 0 -- -- 57
2019-08-17 06:00:00 19.2 4 Norte 12 Este 0 -- -- 50
2019-08-17 05:00:00 19.4 8 Este 11 Este 0 -- -- 50
2019-08-17 04:00:00 19.8 8 Este 10 Nordeste 0 -- -- 48
2019-08-17 03:00:00 20.3 5 Nordeste 8 Nordeste 0 -- -- 45
2019-08-17 02:00:00 21.4 0 Calma 8 Nordeste 0 -- -- 43
2019-08-17 01:00:00 23.4 0 Calma 8 Nordeste 0 -- -- 38
2019-08-17 00:00:00 25 4 Este 12 Norte 0 -- -- 34
2019-08-16 23:00:00 26.6 2 Oeste 4 Sudoeste 0 -- -- 31
2019-08-16 22:00:00 29.1 3 Sur 6 Sur 0 -- -- 28
2019-08-16 21:00:00 33.4 4 Sudoeste 18 Sudoeste 0 -- -- 23
2019-08-16 20:00:00 35.8 12 Sudoeste 26 Sudoeste 0 -- -- 20
2019-08-16 19:00:00 36.6 12 Sudoeste 28 Sudoeste 0 -- -- 21
2019-08-16 18:00:00 36.5 15 Oeste 30 Oeste 0 -- -- 21
2019-08-16 17:00:00 36.4 12 Sudoeste 30 Sudoeste 0 -- -- 22
2019-08-16 16:00:00 36.3 11 Sudoeste 27 Oeste 0 -- -- 23
2019-08-16 15:00:00 35.3 16 Sudoeste 24 Oeste 0 -- -- 25
2019-08-16 14:00:00 34 5 Este 17 Oeste 0 -- -- 31
2019-08-16 13:00:00 31.6 6 Oeste 17 Oeste 0 -- -- 37
2019-08-16 12:00:00 29.6 4 Este 12 Sudoeste 0 -- -- 41
2019-08-16 11:00:00 27.4 4 Sudoeste 9 Este 0 -- -- 45
2019-08-16 10:00:00 24.4 5 Este 10 Nordeste 0 -- -- 48
2019-08-16 09:00:00 20.8 8 Este 14 Este 0 -- -- 56
2019-08-16 08:00:00 18.2 6 Este 9 Este 0 -- -- 62
2019-08-16 07:00:00 18.5 6 Este 12 Este 0 -- -- 60
2019-08-16 06:00:00 19.6 9 Este 14 Este 0 -- -- 57
2019-08-16 05:00:00 20 8 Este 12 Este 0 -- -- 56
2019-08-16 04:00:00 20.9 9 Este 16 Nordeste 0 -- -- 54
2019-08-16 03:00:00 21.8 10 Este 28 Nordeste 0 -- -- 51
2019-08-16 02:00:00 23.1 15 Nordeste 32 Nordeste 0 -- -- 47
2019-08-16 01:00:00 24.4 22 Nordeste 32 Nordeste 0 -- -- 44
2019-08-16 00:00:00 26.3 22 Nordeste 36 Nordeste 0 -- -- 40
2019-08-15 23:00:00 30.4 17 Nordeste 30 Nordeste 0 -- -- 29
2019-08-15 22:00:00 30.8 5 Nordeste 14 Norte 0 -- -- 32
2019-08-15 21:00:00 33.8 3 Sudeste 14 Norte 0 -- -- 29
2019-08-15 20:00:00 35.6 5 Sur 13 Oeste 0 -- -- 24
2019-08-15 19:00:00 36.3 5 Noroeste 26 Oeste 0 -- -- 23
2019-08-15 18:00:00 36.3 4 Sur 22 Noroeste 0 -- -- 22
2019-08-15 17:00:00 35.3 8 Norte 23 Sudoeste 0 -- -- 22
2019-08-15 16:00:00 35.6 11 Oeste 21 Oeste 0 -- -- 22
2019-08-15 15:00:00 34.8 10 Oeste 26 Oeste 0 -- -- 24
2019-08-15 14:00:00 33.9 5 Sur 18 Sudoeste 0 -- -- 25
2019-08-15 13:00:00 32.4 6 Nordeste 15 Nordeste 0 -- -- 31
2019-08-15 12:00:00 30.6 5 Sudeste 13 Nordeste 0 -- -- 26
2019-08-15 11:00:00 27 8 Este 15 Este 0 -- -- 33
2019-08-15 10:00:00 23.1 8 Este 17 Este 0 -- -- 39
2019-08-15 09:00:00 19.1 10 Este 13 Este 0 -- -- 47
2019-08-15 08:00:00 17 6 Nordeste 11 Este 0 -- -- 48
2019-08-15 07:00:00 17.2 5 Este 13 Este 0 -- -- 47
2019-08-15 06:00:00 17.9 8 Este 15 Este 0 -- -- 43
2019-08-15 05:00:00 18.8 8 Este 18 Este 0 -- -- 42
2019-08-15 04:00:00 19.1 10 Nordeste 13 Nordeste 0 -- -- 41
2019-08-15 03:00:00 19.3 9 Este 13 Este 0 -- -- 40
2019-08-15 02:00:00 19.4 6 Este 10 Nordeste 0 -- -- 41
2019-08-15 01:00:00 21.7 2 Este 9 Este 0 -- -- 34
2019-08-15 00:00:00 21.6 8 Este 13 Este 0 -- -- 35
2019-08-14 23:00:00 24.1 0 Calma 4 Nordeste 0 -- -- 30
2019-08-14 22:00:00 26.6 2 Sur 8 Sudoeste 0 -- -- 27
2019-08-14 21:00:00 31.2 4 Sudoeste 15 Sudoeste 0 -- -- 24
2019-08-14 20:00:00 33.6 8 Sudoeste 15 Oeste 0 -- -- 21
2019-08-14 19:00:00 34 6 Sur 16 Sudoeste 0 -- -- 20
2019-08-14 18:00:00 33.7 4 Sudeste 18 Norte 0 -- -- 20
2019-08-14 17:00:00 33.7 9 Noroeste 18 Oeste 0 -- -- 20
2019-08-14 16:00:00 32.5 6 Noroeste 17 Noroeste 0 -- -- 21
2019-08-14 15:00:00 31.5 6 Noroeste 24 Oeste 0 -- -- 22
2019-08-14 14:00:00 30.5 8 Oeste 18 Oeste 0 -- -- 23
2019-08-14 13:00:00 28.6 5 Noroeste 12 Oeste 0 -- -- 26
2019-08-14 12:00:00 26.2 6 Norte 10 Norte 0 -- -- 34
2019-08-14 11:00:00 23.2 3 Noroeste 12 Este 0 -- -- 40
2019-08-14 10:00:00 19.9 7 Este 15 Nordeste 0 -- -- 45
2019-08-14 09:00:00 16.3 8 Este 13 Este 0 -- -- 52
2019-08-14 08:00:00 14.1 6 Este 13 Este 0 -- -- 57
2019-08-14 07:00:00 14.5 9 Este 14 Este 0 -- -- 56
2019-08-14 06:00:00 14.8 8 Este 14 Nordeste 0 -- -- 53
2019-08-14 05:00:00 16 11 Este 17 Este 0 -- -- 50
2019-08-14 04:00:00 16.7 9 Este 15 Este 0 -- -- 47
2019-08-14 03:00:00 17 10 Este 15 Nordeste 0 -- -- 41
2019-08-14 02:00:00 17.1 10 Nordeste 13 Nordeste 0 -- -- 36
2019-08-14 01:00:00 17.8 9 Nordeste 13 Nordeste 0 -- -- 37
2019-08-14 00:00:00 19.2 6 Nordeste 13 Este 0 -- -- 34
2019-08-13 23:00:00 22.1 6 Este 14 Nordeste 0 -- -- 29
2019-08-13 22:00:00 25.9 4 Nordeste 18 Norte 0 -- -- 23
2019-08-13 21:00:00 29 0 Calma 13 Oeste 0 -- -- 24
2019-08-13 20:00:00 30.7 6 Oeste 18 Oeste 0 -- -- 22
2019-08-13 19:00:00 30.7 12 Sudoeste 21 Sudoeste 0 -- -- 22
2019-08-13 18:00:00 30.6 5 Sudoeste 19 Noroeste 0 -- -- 21
2019-08-13 17:00:00 30.7 8 Sudoeste 23 Sudoeste 0 -- -- 23
2019-08-13 16:00:00 29.8 12 Oeste 24 Sur 0 -- -- 26
2019-08-13 15:00:00 27.9 8 Norte 18 Norte 0 -- -- 29
2019-08-13 14:00:00 26.9 8 Norte 19 Oeste 0 -- -- 38
2019-08-13 13:00:00 25.3 8 Noroeste 17 Noroeste 0 -- -- 44
2019-08-13 12:00:00 23.5 7 Nordeste 19 Nordeste 0 -- -- 39
2019-08-13 11:00:00 20.6 13 Nordeste 22 Este 0 -- -- 42
2019-08-13 10:00:00 17.3 16 Nordeste 25 Nordeste 0 -- -- 49
2019-08-13 09:00:00 15.5 17 Nordeste 26 Nordeste 0 -- -- 54
2019-08-13 08:00:00 14.5 14 Nordeste 25 Nordeste 0 -- -- 58
2019-08-13 07:00:00 14.4 12 Nordeste 26 Nordeste 0 -- -- 59
2019-08-13 06:00:00 15.5 21 Nordeste 33 Nordeste 0 -- -- 56
2019-08-13 05:00:00 15.5 17 Nordeste 30 Nordeste 0 -- -- 56
2019-08-13 04:00:00 15.8 13 Nordeste 31 Nordeste 0 -- -- 55
2019-08-13 03:00:00 17.2 21 Nordeste 31 Nordeste 0 -- -- 50
2019-08-13 02:00:00 18.3 23 Nordeste 34 Nordeste 0 -- -- 47
2019-08-13 01:00:00 18.7 21 Nordeste 35 Nordeste 0 -- -- 44
2019-08-13 00:00:00 20.1 22 Nordeste 39 Nordeste 0 -- -- 38
2019-08-12 23:00:00 22 23 Nordeste 36 Nordeste 0 -- -- 32
2019-08-12 22:00:00 23.4 8 Norte 22 Norte 0 -- -- 25
2019-08-12 21:00:00 25.5 14 Norte 25 Norte 0 -- -- 23
2019-08-12 20:00:00 26.8 10 Nordeste 28 Este 0 -- -- 21
2019-08-12 19:00:00 28.2 16 Este 43 Nordeste 0 -- -- 20
2019-08-12 18:00:00 28.3 17 Nordeste 30 Este 0 -- -- 20
2019-08-12 17:00:00 28.5 16 Este 31 Nordeste 0 -- -- 21
2019-08-12 16:00:00 27.7 14 Nordeste 30 Nordeste 0 -- -- 22
2019-08-12 15:00:00 27 14 Nordeste 41 Nordeste 0 -- -- 23
2019-08-12 14:00:00 26.2 12 Nordeste 28 Nordeste 0 -- -- 23
2019-08-12 13:00:00 25.4 12 Nordeste 30 Nordeste 0 -- -- 26
2019-08-12 12:00:00 23.8 18 Nordeste 31 Este 0 -- -- 32
2019-08-12 11:00:00 21.7 13 Nordeste 25 Nordeste 0 -- -- 40
2019-08-12 10:00:00 19.4 12 Nordeste 24 Nordeste 0 -- -- 50
2019-08-12 09:00:00 15.8 9 Nordeste 14 Nordeste 0 -- -- 65
2019-08-12 08:00:00 12.7 6 Este 8 Este 0 -- -- 66
2019-08-12 07:00:00 12.3 5 Este 9 Este 0 -- -- 60
2019-08-12 06:00:00 13 8 Nordeste 11 Nordeste 0 -- -- 51
2019-08-12 05:00:00 15.4 5 Nordeste 13 Este 0 -- -- 46
2019-08-12 04:00:00 17.3 7 Nordeste 18 Nordeste 0 -- -- 44
2019-08-12 03:00:00 16.5 5 Este 14 Nordeste 0 -- -- 42
2019-08-12 02:00:00 18.3 0 Calma 9 Este 0 -- -- 37
2019-08-12 01:00:00 21.2 4 Este 19 Nordeste 0 -- -- 33
2019-08-12 00:00:00 22.3 10 Este 22 Nordeste 0 -- -- 33
2019-08-11 23:00:00 23.8 5 Norte 13 Norte 0 -- -- 30
2019-08-11 22:00:00 25.3 7 Norte 23 Oeste 0 -- -- 31
2019-08-11 21:00:00 26.3 12 Sudoeste 29 Sudoeste 0 -- -- 30
2019-08-11 20:00:00 27.7 17 Sudoeste 32 Sudoeste 0 -- -- 24
2019-08-11 19:00:00 29.7 18 Sudoeste 34 Oeste 0 -- -- 22
2019-08-11 18:00:00 30.8 16 Sudoeste 36 Sudoeste 0 -- -- 15
2019-08-11 17:00:00 30.1 19 Sudoeste 39 Sudoeste 0 -- -- 19
2019-08-11 16:00:00 29.9 24 Sudoeste 41 Sudoeste 0 -- -- 18
2019-08-11 15:00:00 28.9 24 Oeste 41 Sudoeste 0 -- -- 24
2019-08-11 14:00:00 29.6 21 Oeste 39 Sudoeste 0 -- -- 26
2019-08-11 13:00:00 28.3 17 Oeste 31 Oeste 0 -- -- 30
2019-08-11 12:00:00 26.9 17 Sudoeste 27 Sudoeste 0 -- -- 33
2019-08-11 11:00:00 25.3 12 Oeste 18 Sudoeste 0 -- -- 35
2019-08-11 10:00:00 22.5 7 Oeste 11 Sudoeste 0 -- -- 41
2019-08-11 09:00:00 19 3 Sur 8 Noroeste 0 -- -- 52
2019-08-11 08:00:00 17.9 0 Calma 13 Sudeste 0 -- -- 58
2019-08-11 07:00:00 16.4 4 Este 7 Este 0 -- -- 52
2019-08-11 06:00:00 15.5 0 Calma 4 Este 0 -- -- 56
2019-08-11 05:00:00 16.9 3 Este 6 Este 0 -- -- 53
2019-08-11 04:00:00 18.8 4 Nordeste 8 Nordeste 0 -- -- 42
2019-08-11 03:00:00 18.9 5 Nordeste 8 Nordeste 0 -- -- 42
2019-08-11 02:00:00 19.6 6 Nordeste 8 Nordeste 0 -- -- 44
2019-08-11 01:00:00 19.8 0 Calma 6 Este 0 -- -- 43
2019-08-11 00:00:00 21 2 Este 5 Este 0 -- -- 39
2019-08-10 23:00:00 23.2 0 Calma 5 Sudeste 0 -- -- 36
2019-08-10 22:00:00 27.1 0 Calma 12 Noroeste 0 -- -- 29
2019-08-10 21:00:00 30.1 6 Noroeste 20 Oeste 0 -- -- 25
2019-08-10 20:00:00 32.1 11 Oeste 29 Sudoeste 0 -- -- 26
2019-08-10 19:00:00 32.6 15 Oeste 35 Oeste 0 -- -- 26
2019-08-10 18:00:00 32.8 16 Oeste 39 Oeste 0 -- -- 24
2019-08-10 17:00:00 32.5 17 Oeste 32 Sudoeste 0 -- -- 25
2019-08-10 16:00:00 31.6 18 Sudoeste 33 Oeste 0 -- -- 27
2019-08-10 15:00:00 30.7 15 Oeste 27 Oeste 0 -- -- 30
2019-08-10 14:00:00 29.6 12 Oeste 24 Oeste 0 -- -- 29
2019-08-10 13:00:00 28.1 9 Oeste 22 Oeste 0 -- -- 32
2019-08-10 12:00:00 26.2 9 Oeste 18 Sudoeste 0 -- -- 41
2019-08-10 11:00:00 24.2 4 Nordeste 9 Este 0 -- -- 50
2019-08-10 10:00:00 21.7 5 Oeste 8 Sudoeste 0 -- -- 60
2019-08-10 09:00:00 19.4 0 Calma 4 Este 0 -- -- 69
2019-08-10 08:00:00 17.3 3 Este 5 Este 0 -- -- 80
2019-08-10 07:00:00 17 0 Calma 6 Sur 0 -- -- 79
2019-08-10 06:00:00 18.4 0 Calma 6 Sudoeste 0 -- -- 74
2019-08-10 05:00:00 19.7 0 Calma 11 Sudoeste 0 -- -- 72
2019-08-10 04:00:00 20.6 4 Sudoeste 11 Sudoeste 0 -- -- 72
2019-08-10 03:00:00 21.6 6 Sudoeste 14 Sudoeste 0 -- -- 71
2019-08-10 02:00:00 22.4 6 Sudoeste 13 Sudoeste 0 -- -- 67
2019-08-10 01:00:00 23.5 6 Sudoeste 13 Sudoeste 0 -- -- 63
2019-08-10 00:00:00 24.6 7 Sudoeste 26 Sudoeste 0 -- -- 59
2019-08-09 23:00:00 25.7 12 Oeste 27 Oeste 0 -- -- 57
2019-08-09 22:00:00 27 18 Oeste 36 Oeste 0 -- -- 56
2019-08-09 21:00:00 29.1 26 Oeste 41 Oeste 0 -- -- 47
2019-08-09 20:00:00 30.5 28 Oeste 48 Sudoeste 0 -- -- 42
2019-08-09 19:00:00 32 30 Oeste 54 Oeste 0 -- -- 38
2019-08-09 18:00:00 32.2 30 Sudoeste 51 Oeste 0 -- -- 39
2019-08-09 17:00:00 32.6 30 Oeste 51 Sudoeste 0 -- -- 40
2019-08-09 16:00:00 32.2 28 Sudoeste 45 Sudoeste 0 -- -- 41
2019-08-09 15:00:00 31.5 26 Sudoeste 45 Sudoeste 0 -- -- 42
2019-08-09 14:00:00 30.6 30 Sudoeste 51 Oeste 0 -- -- 45
2019-08-09 13:00:00 29.8 24 Sudoeste 53 Sudoeste 0 -- -- 47
2019-08-09 12:00:00 28.2 23 Sudoeste 42 Sudoeste 0 -- -- 50
2019-08-09 11:00:00 26.9 17 Sudoeste 34 Sudoeste 0 -- -- 52
2019-08-09 10:00:00 25.3 17 Sudoeste 30 Sudoeste 0 -- -- 57
2019-08-09 09:00:00 23.8 13 Sudoeste 24 Sudoeste 0 -- -- 61
2019-08-09 08:00:00 22.4 8 Sudoeste 16 Sudoeste 0 -- -- 64
2019-08-09 07:00:00 22.1 7 Sur 15 Oeste 0 -- -- 62
2019-08-09 06:00:00 22.6 10 Sudoeste 18 Oeste 0 -- -- 59
2019-08-09 05:00:00 20.7 5 Oeste 9 Oeste 0 -- -- 61
2019-08-09 04:00:00 20 2 Noroeste 6 Oeste 0 -- -- 59
2019-08-09 03:00:00 20.6 0 Calma 5 Norte 0 -- -- 56
2019-08-09 02:00:00 22.2 3 Norte 5 Norte 0 -- -- 53
2019-08-09 01:00:00 23.9 0 Calma 5 Norte 0 -- -- 45
2019-08-09 00:00:00 26.2 4 Sudoeste 12 Oeste 0 -- -- 42
2019-08-08 23:00:00 28.4 2 Sudoeste 22 Oeste 0 -- -- 39
2019-08-08 22:00:00 30.2 8 Oeste 24 Oeste 0 -- -- 35
2019-08-08 21:00:00 32.2 15 Oeste 34 Sudoeste 0 -- -- 32
2019-08-08 20:00:00 33.8 21 Oeste 37 Oeste 0 -- -- 29
2019-08-08 19:00:00 34.7 18 Oeste 39 Sudoeste 0 -- -- 28
2019-08-08 18:00:00 34.3 17 Sudoeste 38 Oeste 0 -- -- 30
2019-08-08 17:00:00 34.1 23 Oeste 38 Oeste 0 -- -- 31
2019-08-08 16:00:00 33 21 Sudoeste 39 Sudoeste 0 -- -- 35
2019-08-08 15:00:00 32.6 16 Sudoeste 36 Sudoeste 0 -- -- 37
2019-08-08 14:00:00 31 15 Sudoeste 27 Sudoeste 0 -- -- 39
2019-08-08 13:00:00 29.1 15 Oeste 24 Oeste 0 -- -- 42
2019-08-08 12:00:00 28.1 10 Sudoeste 23 Sudoeste 0 -- -- 42
2019-08-08 11:00:00 25.8 8 Oeste 13 Sudoeste 0 -- -- 46
2019-08-08 10:00:00 23.4 6 Sudoeste 12 Sudoeste 0 -- -- 55
2019-08-08 09:00:00 19.8 2 Este 8 Este 0 -- -- 62
2019-08-08 08:00:00 17.2 5 Nordeste 9 Este 0 -- -- 69
2019-08-08 07:00:00 16.3 8 Este 11 Este 0 -- -- 72
2019-08-08 06:00:00 17 5 Nordeste 10 Este 0 -- -- 69
2019-08-08 05:00:00 17.6 5 Nordeste 6 Nordeste 0 -- -- 69
2019-08-08 04:00:00 19.2 0 Calma 6 Oeste 0 -- -- 62
2019-08-08 03:00:00 20.9 3 Sudoeste 12 Sudoeste 0 -- -- 57
2019-08-08 02:00:00 21.3 8 Sudoeste 13 Sudoeste 0 -- -- 55
2019-08-08 01:00:00 21.9 8 Sudoeste 13 Sudoeste 0 -- -- 52
2019-08-08 00:00:00 23 8 Sudoeste 20 Sudoeste 0 -- -- 50
2019-08-07 23:00:00 24 10 Sudoeste 19 Sudoeste 0 -- -- 48
2019-08-07 22:00:00 25.2 10 Sudoeste 23 Sudoeste 0 -- -- 44
2019-08-07 21:00:00 26.6 16 Sudoeste 33 Sudoeste 0 -- -- 42
2019-08-07 20:00:00 27.6 18 Sudoeste 31 Sudoeste 0 -- -- 39
2019-08-07 19:00:00 28.4 19 Sudoeste 28 Oeste 0 -- -- 37
2019-08-07 18:00:00 28.1 11 Sudoeste 19 Oeste 0 -- -- 42
2019-08-07 17:00:00 28.4 11 Oeste 20 Oeste 0 -- -- 40
2019-08-07 16:00:00 27.9 6 Noroeste 28 Sudoeste 0 -- -- 41
2019-08-07 15:00:00 27.9 14 Sudoeste 27 Sudoeste 0 -- -- 41
2019-08-07 14:00:00 27.8 16 Sudoeste 33 Oeste 0 -- -- 42
2019-08-07 13:00:00 27 13 Sudoeste 23 Sudoeste 0 -- -- 44
2019-08-07 12:00:00 27.6 13 Sudoeste 31 Sudoeste 0 -- -- 43
2019-08-07 11:00:00 26.2 15 Sudoeste 24 Oeste 0 -- -- 47
2019-08-07 10:00:00 25.6 12 Sudoeste 20 Sudoeste 0 -- -- 48
2019-08-07 09:00:00 24.8 10 Sudoeste 18 Sudoeste 0 -- -- 47
2019-08-07 08:00:00 23.6 6 Sudoeste 19 Sudoeste 0 -- -- 47
2019-08-07 07:00:00 23.8 6 Sudoeste 12 Sudoeste 0 -- -- 43
2019-08-07 06:00:00 23.4 6 Sudoeste 11 Sudoeste 0 -- -- 40
2019-08-07 05:00:00 22.8 3 Oeste 9 Sur 0 -- -- 39
2019-08-07 04:00:00 22.1 2 Sudoeste 8 Sudoeste 0 -- -- 39
2019-08-07 03:00:00 23.7 3 Sur 8 Sudoeste 0 -- -- 37
2019-08-07 02:00:00 26 6 Oeste 10 Sudoeste 0 -- -- 33
2019-08-07 01:00:00 27.8 6 Sudoeste 19 Sudoeste 0 -- -- 29
2019-08-07 00:00:00 28.6 11 Sudoeste 27 Sudoeste 0 -- -- 29
2019-08-06 23:00:00 28.6 6 Sudoeste 15 Sudoeste 0 -- -- 29
2019-08-06 22:00:00 30.2 7 Sudoeste 22 Oeste 0 -- -- 26
2019-08-06 21:00:00 32.7 15 Oeste 22 Oeste 0 -- -- 21
2019-08-06 20:00:00 33.8 13 Oeste 31 Oeste 0 -- -- 20
2019-08-06 19:00:00 35.7 23 Oeste 36 Oeste 0 -- -- 17
2019-08-06 18:00:00 36.4 14 Sudoeste 35 Oeste 0 -- -- 16
2019-08-06 17:00:00 36.5 17 Sudoeste 32 Sudoeste 0 -- -- 16
2019-08-06 16:00:00 36 20 Sudoeste 37 Sudoeste 0 -- -- 16
2019-08-06 15:00:00 34.7 17 Oeste 36 Sudoeste 0 -- -- 18
2019-08-06 14:00:00 34.5 18 Sudoeste 32 Oeste 0 -- -- 19
2019-08-06 13:00:00 33 16 Oeste 31 Oeste 0 -- -- 22
2019-08-06 12:00:00 31.8 15 Oeste 27 Oeste 0 -- -- 25
2019-08-06 11:00:00 27.9 3 Oeste 9 Este 0 -- -- 27
2019-08-06 10:00:00 24.2 5 Sudeste 10 Este 0 -- -- 32
2019-08-06 09:00:00 19.7 5 Este 9 Este 0 -- -- 43
2019-08-06 08:00:00 17.1 9 Nordeste 14 Nordeste 0 -- -- 45
2019-08-06 07:00:00 16 6 Sudeste 12 Este 0 -- -- 48
2019-08-06 06:00:00 16.4 4 Este 11 Este 0 -- -- 46
2019-08-06 05:00:00 16.7 6 Este 9 Este 0 -- -- 46
2019-08-06 04:00:00 17.3 8 Nordeste 10 Nordeste 0 -- -- 45
2019-08-06 03:00:00 18.3 6 Nordeste 8 Este 0 -- -- 47
2019-08-06 02:00:00 19.7 3 Este 7 Nordeste 0 -- -- 45
2019-08-06 01:00:00 21.9 2 Nordeste 6 Nordeste 0 -- -- 40
2019-08-06 00:00:00 23.2 0 Calma 7 Sudeste 0 -- -- 32
2019-08-05 23:00:00 25.8 0 Calma 5 Nordeste 0 -- -- 33
2019-08-05 22:00:00 29.6 4 Sur 8 Oeste 0 -- -- 27
2019-08-05 21:00:00 34.5 6 Oeste 27 Oeste 0 -- -- 21
2019-08-05 20:00:00 35.9 11 Oeste 23 Oeste 0 -- -- 19
2019-08-05 19:00:00 36.5 13 Sudoeste 31 Oeste 0 -- -- 19
2019-08-05 18:00:00 36.4 15 Oeste 35 Oeste 0 -- -- 18
2019-08-05 17:00:00 36.4 19 Oeste 32 Oeste 0 -- -- 18
2019-08-05 16:00:00 36 14 Sudoeste 31 Oeste 0 -- -- 21
2019-08-05 15:00:00 35.4 17 Sudoeste 35 Sudoeste 0 -- -- 22
2019-08-05 14:00:00 34.3 13 Oeste 29 Oeste 0 -- -- 23
2019-08-05 13:00:00 33.3 13 Oeste 23 Sudoeste 0 -- -- 24
2019-08-05 12:00:00 30.8 4 Sudoeste 9 Sudoeste 0 -- -- 28
2019-08-05 11:00:00 27.4 4 Sudoeste 9 Oeste 0 -- -- 31
2019-08-05 10:00:00 24.6 5 Este 10 Este 0 -- -- 34
2019-08-05 09:00:00 19.9 5 Este 11 Este 0 -- -- 43
2019-08-05 08:00:00 16.8 7 Nordeste 10 Nordeste 0 -- -- 48
2019-08-05 07:00:00 16.2 6 Nordeste 10 Nordeste 0 -- -- 48
2019-08-05 06:00:00 17 4 Este 11 Este 0 -- -- 45
2019-08-05 05:00:00 17.9 4 Nordeste 11 Este 0 -- -- 44
2019-08-05 04:00:00 18.2 9 Nordeste 11 Nordeste 0 -- -- 43
2019-08-05 03:00:00 19.9 7 Este 11 Nordeste 0 -- -- 39
2019-08-05 02:00:00 19.5 5 Este 9 Nordeste 0 -- -- 45
2019-08-05 01:00:00 20.7 4 Nordeste 6 Nordeste 0 -- -- 41
2019-08-05 00:00:00 22.6 3 Nordeste 6 Nordeste 0 -- -- 36
2019-08-04 23:00:00 24.8 2 Nordeste 6 Nordeste 0 -- -- 29
2019-08-04 22:00:00 28.8 4 Sur 9 Sudoeste 0 -- -- 24
2019-08-04 21:00:00 33.8 8 Oeste 23 Oeste 0 -- -- 19
2019-08-04 20:00:00 35.4 16 Sudoeste 32 Oeste 0 -- -- 17
2019-08-04 19:00:00 36.2 15 Oeste 34 Oeste 0 -- -- 18
2019-08-04 18:00:00 36.7 17 Oeste 34 Oeste 0 -- -- 17
2019-08-04 17:00:00 36.2 20 Oeste 36 Oeste 0 -- -- 18
2019-08-04 16:00:00 36.5 19 Oeste 36 Oeste 0 -- -- 19
2019-08-04 15:00:00 35.6 23 Oeste 39 Oeste 0 -- -- 20
2019-08-04 14:00:00 34.5 14 Sudoeste 29 Oeste 0 -- -- 22
2019-08-04 13:00:00 33.1 14 Oeste 29 Oeste 0 -- -- 23
2019-08-04 12:00:00 30.6 13 Oeste 19 Oeste 0 -- -- 28
2019-08-04 11:00:00 28.1 3 Sudoeste 9 Este 0 -- -- 28
2019-08-04 10:00:00 24.7 8 Este 13 Este 0 -- -- 31
2019-08-04 09:00:00 19.8 7 Este 13 Nordeste 0 -- -- 37
2019-08-04 08:00:00 17.4 5 Este 13 Nordeste 0 -- -- 41
2019-08-04 07:00:00 16 7 Este 11 Este 0 -- -- 43
2019-08-04 06:00:00 16.2 7 Este 11 Este 0 -- -- 43
2019-08-04 05:00:00 16.9 7 Este 11 Nordeste 0 -- -- 42
2019-08-04 04:00:00 17.9 6 Este 10 Este 0 -- -- 38
2019-08-04 03:00:00 18.6 9 Nordeste 12 Este 0 -- -- 39
2019-08-04 02:00:00 19.2 8 Nordeste 12 Nordeste 0 -- -- 37
2019-08-04 01:00:00 20.5 3 Nordeste 5 Nordeste 0 -- -- 37
2019-08-04 00:00:00 22.2 5 Nordeste 6 Nordeste 0 -- -- 36
2019-08-03 23:00:00 24.8 2 Sudeste 6 Nordeste 0 -- -- 27
2019-08-03 22:00:00 29.1 4 Sudeste 11 Oeste 0 -- -- 24
2019-08-03 21:00:00 34.3 8 Oeste 20 Oeste 0 -- -- 16
2019-08-03 20:00:00 35.9 12 Oeste 28 Oeste 0 -- -- 15
2019-08-03 19:00:00 36.7 14 Oeste 33 Sudoeste 0 -- -- 16
2019-08-03 18:00:00 36.8 17 Oeste 38 Oeste 0 -- -- 16
2019-08-03 17:00:00 36.5 21 Oeste 36 Oeste 0 -- -- 17
2019-08-03 16:00:00 36.2 17 Oeste 31 Oeste 0 -- -- 17
2019-08-03 15:00:00 35.6 14 Sudoeste 28 Sudoeste 0 -- -- 18
2019-08-03 14:00:00 34.4 13 Oeste 24 Oeste 0 -- -- 24
2019-08-03 13:00:00 32.5 8 Sudoeste 20 Sudoeste 0 -- -- 31
2019-08-03 12:00:00 30.2 5 Oeste 15 Oeste 0 -- -- 37
2019-08-03 11:00:00 28.1 5 Noroeste 9 Noroeste 0 -- -- 42
2019-08-03 10:00:00 25.5 5 Este 13 Este 0 -- -- 45
2019-08-03 09:00:00 22 10 Nordeste 15 Nordeste 0 -- -- 49
2019-08-03 08:00:00 18.9 3 Este 9 Este 0 -- -- 56
2019-08-03 07:00:00 19 8 Este 10 Este 0 -- -- 54
2019-08-03 06:00:00 21 5 Nordeste 13 Norte 0 -- -- 48
2019-08-03 05:00:00 22.7 3 Norte 12 Nordeste 0 -- -- 47
2019-08-03 04:00:00 23.7 6 Nordeste 15 Nordeste 0 -- -- 44
2019-08-03 03:00:00 22.6 9 Nordeste 22 Este 0 -- -- 40
2019-08-03 02:00:00 22.5 9 Este 14 Este 0 -- -- 40
2019-08-03 01:00:00 22 12 Este 16 Este 0 -- -- 34
2019-08-03 00:00:00 22.7 4 Nordeste 6 Nordeste 0 -- -- 36
2019-08-02 23:00:00 25.9 3 Nordeste 5 Sur 0 -- -- 28
2019-08-02 22:00:00 29.2 3 Sur 9 Sudoeste 0 -- -- 22
2019-08-02 21:00:00 33.9 7 Oeste 18 Oeste 0 -- -- 18
2019-08-02 20:00:00 35.4 12 Oeste 21 Oeste 0 -- -- 17
2019-08-02 19:00:00 36.3 9 Oeste 21 Oeste 0 -- -- 18
2019-08-02 18:00:00 36.6 6 Sudoeste 26 Oeste 0 -- -- 17
2019-08-02 17:00:00 36 6 Noroeste 24 Noroeste 0 -- -- 17
2019-08-02 16:00:00 35.6 14 Oeste 23 Oeste 0 -- -- 17
2019-08-02 15:00:00 35.1 10 Oeste 23 Oeste 0 -- -- 20
2019-08-02 14:00:00 34.3 8 Noroeste 21 Noroeste 0 -- -- 21
2019-08-02 13:00:00 32.7 4 Nordeste 12 Noroeste 0 -- -- 29
2019-08-02 12:00:00 30.4 4 Norte 10 Sudeste 0 -- -- 34
2019-08-02 11:00:00 27.7 4 Este 12 Este 0 -- -- 42
2019-08-02 10:00:00 25 6 Este 13 Nordeste 0 -- -- 51
2019-08-02 09:00:00 21.6 9 Este 13 Este 0 -- -- 64
2019-08-02 08:00:00 19.7 11 Este 16 Este 0 -- -- 67
2019-08-02 07:00:00 18.7 8 Este 12 Este 0 -- -- 66
2019-08-02 06:00:00 19.1 8 Este 12 Este 0 -- -- 59
2019-08-02 05:00:00 19.7 7 Este 14 Este 0 -- -- 56
2019-08-02 04:00:00 19.8 5 Nordeste 11 Nordeste 0 -- -- 57
2019-08-02 03:00:00 20.4 7 Este 11 Este 0 -- -- 50
2019-08-02 02:00:00 20 5 Nordeste 8 Nordeste 0 -- -- 37
2019-08-02 01:00:00 22.6 2 Este 12 Norte 0 -- -- 32
2019-08-02 00:00:00 25 5 Sudeste 16 Norte 0 -- -- 28
2019-08-01 23:00:00 26 3 Sudoeste 8 Sudoeste 0 -- -- 26
2019-08-01 22:00:00 29.2 5 Sudoeste 14 Oeste 0 -- -- 22
2019-08-01 21:00:00 32.3 10 Oeste 25 Sudoeste 0 -- -- 19
2019-08-01 20:00:00 33.9 15 Oeste 39 Oeste 0 -- -- 21
2019-08-01 19:00:00 34.6 18 Sudoeste 34 Oeste 0 -- -- 18
2019-08-01 18:00:00 34.6 17 Oeste 31 Oeste 0 -- -- 22
2019-08-01 17:00:00 34.4 18 Oeste 33 Sudoeste 0 -- -- 24
2019-08-01 16:00:00 34 20 Oeste 31 Oeste 0 -- -- 26
2019-08-01 15:00:00 33.4 19 Sudoeste 37 Oeste 0 -- -- 26
2019-08-01 14:00:00 32.9 10 Sudoeste 41 Sur 0 -- -- 30
2019-08-01 13:00:00 30.7 10 Sudoeste 19 Sudoeste 0 -- -- 39
2019-08-01 12:00:00 28.4 9 Sudoeste 15 Sudoeste 0 -- -- 43
2019-08-01 11:00:00 26.3 7 Sur 14 Sudeste 0 -- -- 48
2019-08-01 10:00:00 24.4 6 Sudeste 14 Sur 0 -- -- 52
2019-08-01 09:00:00 21.8 4 Sudoeste 8 Sudoeste 0 -- -- 59
2019-08-01 08:00:00 19.7 2 Sudeste 6 Este 0 -- -- 65
2019-08-01 07:00:00 20.5 4 Sudeste 14 Oeste 0 -- -- 62
2019-08-01 06:00:00 21 3 Sudoeste 8 Noroeste 0 -- -- 61
2019-08-01 05:00:00 21.6 3 Este 8 Este 0 -- -- 60
2019-08-01 04:00:00 22.3 2 Este 8 Este 0 -- -- 61
2019-08-01 03:00:00 24.3 5 Sudeste 31 Este 0 -- -- 58
2019-08-01 02:00:00 25 9 Este 23 Sur 0 -- -- 55
2019-08-01 01:00:00 25.8 5 Noroeste 32 Sur 0 -- -- 55
2019-08-01 00:00:00 26.9 21 Sudeste 40 Sudeste 0 -- -- 52
2019-07-31 23:00:00 28.1 21 Sudeste 40 Sudeste 0 -- -- 48
2019-07-31 22:00:00 29.1 18 Sudeste 36 Sur 0 -- -- 45
2019-07-31 21:00:00 30.3 19 Sudeste 36 Sur 0 -- -- 41
2019-07-31 20:00:00 31.6 21 Sudeste 36 Sudeste 0 -- -- 38
2019-07-31 19:00:00 33 14 Sudeste 27 Sudeste 0 -- -- 34
2019-07-31 18:00:00 34.1 15 Sur 32 Sur 0 -- -- 31
2019-07-31 17:00:00 35.3 8 Sur 33 Sudeste 0 -- -- 28
2019-07-31 16:00:00 34.6 14 Sur 30 Sur 0 -- -- 28
2019-07-31 15:00:00 32.9 16 Sudeste 31 Sudeste 0 -- -- 32
2019-07-31 14:00:00 32 10 Sur 31 Sur 0 -- -- 34
2019-07-31 13:00:00 30.2 14 Sur 27 Sudeste 0 -- -- 38
2019-07-31 12:00:00 26.8 8 Norte 17 Nordeste 0 -- -- 40
2019-07-31 11:00:00 24.6 13 Nordeste 25 Nordeste 0 -- -- 42
2019-07-31 10:00:00 22.1 15 Nordeste 24 Nordeste 0 -- -- 45
2019-07-31 09:00:00 18.8 16 Nordeste 24 Este 0 -- -- 52
2019-07-31 08:00:00 17 14 Este 24 Nordeste 0 -- -- 57
2019-07-31 07:00:00 15.8 10 Este 20 Este 0 -- -- 59
2019-07-31 06:00:00 16.5 13 Este 26 Nordeste 0 -- -- 57
2019-07-31 05:00:00 16.8 17 Nordeste 33 Nordeste 0 -- -- 56
2019-07-31 04:00:00 17.4 19 Nordeste 33 Nordeste 0 -- -- 54
2019-07-31 03:00:00 18.1 18 Nordeste 35 Nordeste 0 -- -- 52
2019-07-31 02:00:00 19 21 Nordeste 40 Nordeste 0 -- -- 49
2019-07-31 01:00:00 20.9 31 Nordeste 47 Nordeste 0 -- -- 43
2019-07-31 00:00:00 23.1 27 Nordeste 41 Nordeste 0 -- -- 38
2019-07-30 23:00:00 24.2 14 Nordeste 27 Nordeste 0 -- -- 29
2019-07-30 22:00:00 25.5 4 Este 11 Nordeste 0 -- -- 26
2019-07-30 21:00:00 30.2 4 Norte 13 Norte 0 -- -- 18
2019-07-30 20:00:00 31.1 6 Norte 15 Norte 0 -- -- 18
2019-07-30 19:00:00 31.3 7 Norte 15 Norte 0 -- -- 16
2019-07-30 18:00:00 32 5 Este 14 Oeste 0 -- -- 16
2019-07-30 17:00:00 31.7 8 Noroeste 17 Sudoeste 0 -- -- 16
2019-07-30 16:00:00 30.7 9 Norte 22 Este 0 -- -- 18
2019-07-30 15:00:00 30.1 10 Nordeste 21 Oeste 0 -- -- 20
2019-07-30 14:00:00 28.5 11 Noroeste 23 Oeste 0 -- -- 25
2019-07-30 13:00:00 27.7 12 Nordeste 24 Nordeste 0 -- -- 28
2019-07-30 12:00:00 26 15 Este 25 Nordeste 0 -- -- 31
2019-07-30 11:00:00 24 15 Nordeste 26 Nordeste 0 -- -- 35
2019-07-30 10:00:00 21.7 14 Nordeste 21 Norte 0 -- -- 39
2019-07-30 09:00:00 18.9 10 Nordeste 16 Nordeste 0 -- -- 44
2019-07-30 08:00:00 15.7 8 Nordeste 12 Nordeste 0 -- -- 50
2019-07-30 07:00:00 13.7 7 Este 9 Este 0 -- -- 53
2019-07-30 06:00:00 14.3 3 Sudeste 7 Norte 0 -- -- 53
2019-07-30 05:00:00 15 4 Este 8 Este 0 -- -- 50
2019-07-30 04:00:00 17.6 5 Este 10 Este 0 -- -- 43
2019-07-30 03:00:00 20.4 5 Nordeste 19 Norte 0 -- -- 37
2019-07-30 02:00:00 20.8 6 Nordeste 22 Norte 0 -- -- 36
2019-07-30 01:00:00 23.7 10 Nordeste 17 Nordeste 0 -- -- 31
2019-07-30 00:00:00 24.4 10 Nordeste 18 Nordeste 0 -- -- 29
2019-07-29 23:00:00 26 2 Este 18 Norte 0 -- -- 28
2019-07-29 22:00:00 28.5 11 Noroeste 28 Oeste 0 -- -- 26
2019-07-29 21:00:00 30.5 18 Oeste 33 Sudoeste 0 -- -- 27
2019-07-29 20:00:00 32.2 20 Oeste 33 Oeste 0 -- -- 23
2019-07-29 19:00:00 33 22 Sudoeste 40 Oeste 0 -- -- 19
2019-07-29 18:00:00 33.6 22 Oeste 37 Oeste 0 -- -- 17
2019-07-29 17:00:00 33.7 21 Sudoeste 43 Sudoeste 0 -- -- 17
2019-07-29 16:00:00 33.2 22 Oeste 40 Oeste 0 -- -- 20
2019-07-29 15:00:00 32.6 18 Oeste 35 Oeste 0 -- -- 27
2019-07-29 14:00:00 31.6 14 Sudoeste 34 Oeste 0 -- -- 28
2019-07-29 13:00:00 30.6 16 Oeste 28 Oeste 0 -- -- 29
2019-07-29 12:00:00 28.9 12 Sudoeste 21 Oeste 0 -- -- 28
2019-07-29 11:00:00 26 6 Oeste 12 Oeste 0 -- -- 32
2019-07-29 10:00:00 23.6 3 Sudeste 9 Este 0 -- -- 35
2019-07-29 09:00:00 19.6 7 Este 13 Este 0 -- -- 41
2019-07-29 08:00:00 16.9 8 Este 11 Este 0 -- -- 44
2019-07-29 07:00:00 15.7 10 Nordeste 14 Nordeste 0 -- -- 48
2019-07-29 06:00:00 15.9 4 Este 10 Este 0 -- -- 48
2019-07-29 05:00:00 16.7 6 Este 8 Nordeste 0 -- -- 47
2019-07-29 04:00:00 18.3 4 Este 10 Este 0 -- -- 45
2019-07-29 03:00:00 19.4 5 Este 10 Nordeste 0 -- -- 44
2019-07-29 02:00:00 20.1 8 Nordeste 12 Nordeste 0 -- -- 43
2019-07-29 01:00:00 21.8 2 Nordeste 12 Sudoeste 0 -- -- 35
2019-07-29 00:00:00 23.2 4 Sudoeste 12 Sur 0 -- -- 33
2019-07-28 23:00:00 24.6 8 Sur 12 Sur 0 -- -- 30
2019-07-28 22:00:00 26.4 7 Sur 13 Sudoeste 0 -- -- 30
2019-07-28 21:00:00 29.4 8 Sudoeste 21 Sudoeste 0 -- -- 28
2019-07-28 20:00:00 30.7 6 Sudoeste 20 Sudoeste 0 -- -- 26
2019-07-28 19:00:00 30.9 7 Sudoeste 23 Oeste 0 -- -- 26
2019-07-28 18:00:00 30.6 10 Sudoeste 30 Sur 0 -- -- 27
2019-07-28 17:00:00 30.1 11 Sudoeste 22 Oeste 0 -- -- 28
2019-07-28 16:00:00 29.8 4 Este 21 Oeste 0 -- -- 28
2019-07-28 15:00:00 28.2 10 Sudoeste 30 Nordeste 0 -- -- 30
2019-07-28 14:00:00 26.5 7 Noroeste 17 Noroeste 0 -- -- 32
2019-07-28 13:00:00 25.4 6 Nordeste 16 Norte 0 -- -- 34
2019-07-28 12:00:00 23.7 9 Nordeste 18 Nordeste 0 -- -- 38
2019-07-28 11:00:00 22.1 9 Nordeste 17 Nordeste 0 -- -- 43
2019-07-28 10:00:00 19.5 10 Nordeste 17 Nordeste 0 -- -- 51
2019-07-28 09:00:00 16.8 9 Nordeste 18 Este 0 -- -- 60
2019-07-28 08:00:00 14.2 11 Este 15 Este 0 -- -- 69
2019-07-28 07:00:00 13.8 8 Este 13 Nordeste 0 -- -- 69
2019-07-28 06:00:00 14.2 6 Nordeste 17 Nordeste 0 -- -- 67
2019-07-28 05:00:00 15.1 10 Nordeste 17 Este 0 -- -- 65
2019-07-28 04:00:00 16.3 6 Este 14 Este 0 -- -- 62
2019-07-28 03:00:00 17.5 13 Este 21 Nordeste 0 -- -- 60
2019-07-28 02:00:00 19.5 14 Este 33 Nordeste 0 -- -- 57
2019-07-28 01:00:00 19.5 10 Nordeste 24 Nordeste 0 -- -- 59
2019-07-28 00:00:00 21.1 16 Nordeste 27 Nordeste 0 -- -- 53
2019-07-27 23:00:00 22.5 12 Norte 28 Norte 0 -- -- 44
2019-07-26 12:00:00 -- -- -- -- -- -- -- -- --
2019-07-26 11:00:00 -- -- -- -- -- -- -- -- --
2019-07-26 10:00:00 26 9 Sudoeste 16 Sudoeste 0 -- -- 49
2019-07-26 09:00:00 24.4 7 Sudoeste 12 Sur 0 -- -- 53
2019-07-26 08:00:00 24 6 Sudoeste 16 Sudoeste 0 -- -- 52
2019-07-26 07:00:00 23.8 6 Sudoeste 13 Sudoeste 0 -- -- 48
2019-07-26 06:00:00 24.1 4 Sudoeste 10 Sudoeste 0 -- -- 43
2019-07-26 05:00:00 25 3 Sur 14 Sudoeste 0 -- -- 39
2019-07-26 04:00:00 24.2 5 Sudoeste 9 Sudoeste 0 -- -- 37
2019-07-26 03:00:00 24.2 3 Sudeste 8 Nordeste 0 -- -- 41
2019-07-26 02:00:00 24.7 0 Calma 4 Sudoeste 0 -- -- 37
2019-07-26 01:00:00 25.1 4 Sudoeste 6 Sur 0 -- -- 36
2019-07-26 00:00:00 26.4 3 Sudoeste 10 Sudoeste 0 -- -- 35
2019-07-25 23:00:00 29.6 9 Oeste 18 Oeste 0 -- -- 30
2019-07-25 22:00:00 31.6 14 Oeste 27 Oeste 0 -- -- 27
2019-07-25 21:00:00 34 15 Oeste 32 Oeste 0 -- -- 24
2019-07-25 20:00:00 35.7 19 Oeste 39 Oeste 0 -- -- 21
2019-07-25 19:00:00 36.7 22 Sudoeste 39 Sudoeste 0 -- -- 21
2019-07-25 18:00:00 36.6 17 Sudoeste 42 Oeste 0 -- -- 21
2019-07-25 17:00:00 36.6 17 Sudoeste 42 Sudoeste 0 -- -- 22
2019-07-25 16:00:00 36.3 23 Sudoeste 41 Sudoeste 0 -- -- 23
2019-07-25 15:00:00 35.9 19 Oeste 41 Sudoeste 0 -- -- 23
2019-07-25 14:00:00 35.2 21 Sudoeste 37 Sudoeste 0 -- -- 23
2019-07-25 13:00:00 33.8 11 Oeste 29 Sudoeste 0 -- -- 28
2019-07-25 12:00:00 32.3 10 Oeste 22 Oeste 0 -- -- 31
2019-07-25 11:00:00 30.2 10 Sudoeste 19 Sudoeste 0 -- -- 33
2019-07-25 10:00:00 28.6 12 Sur 19 Sur 0 -- -- 35
2019-07-25 09:00:00 26.4 3 Este 10 Este 0 -- -- 36
2019-07-25 08:00:00 24.9 5 Este 12 Nordeste 0 -- -- 37
2019-07-25 07:00:00 24.5 6 Sudeste 15 Sur 0 -- -- 37
2019-07-25 06:00:00 24.2 4 Este 12 Sur 0 -- -- 38
2019-07-25 05:00:00 26.8 7 Oeste 31 Sudeste 0 -- -- 33
2019-07-25 04:00:00 28.2 20 Sudeste 49 Sudeste 0 -- -- 31
2019-07-25 03:00:00 28.8 27 Sudeste 50 Sudeste 0 -- -- 30
2019-07-25 02:00:00 29.7 27 Sudeste 46 Sudeste 0 -- -- 29
2019-07-25 01:00:00 30.5 26 Sur 47 Sudeste 0 -- -- 26
2019-07-25 00:00:00 31.5 26 Sur 46 Sudeste 0 -- -- 25
2019-07-24 23:00:00 32.7 20 Sur 31 Sudeste 0 -- -- 23
2019-07-24 22:00:00 33.3 6 Sur 13 Sudoeste 0 -- -- 24
2019-07-24 21:00:00 36.6 6 Sudoeste 18 Sudeste 0 -- -- 21
2019-07-24 20:00:00 37.8 13 Sur 34 Sudoeste 0 -- -- 19
2019-07-24 19:00:00 37.4 9 Sudoeste 34 Sur 0 -- -- 19
2019-07-24 18:00:00 38.5 14 Sudoeste 28 Sudoeste 0 -- -- 19
2019-07-24 17:00:00 38.3 13 Sur 32 Sur 0 -- -- 18
2019-07-24 16:00:00 37.7 14 Sur 30 Sur 0 -- -- 19
2019-07-24 15:00:00 38.1 12 Sudoeste 26 Sur 0 -- -- 20
2019-07-24 14:00:00 36.7 17 Sur 28 Sur 0 -- -- 24
2019-07-24 13:00:00 35.2 10 Sudoeste 22 Sur 0 -- -- 26
2019-07-24 12:00:00 33.9 11 Sur 24 Sudeste 0 -- -- 24
2019-07-24 11:00:00 31.5 7 Sudeste 17 Sudeste 0 -- -- 27
2019-07-24 10:00:00 27.8 11 Este 16 Este 0 -- -- 38
2019-07-24 09:00:00 24.6 9 Nordeste 12 Este 0 -- -- 44
2019-07-24 08:00:00 20 4 Nordeste 9 Nordeste 0 -- -- 54
2019-07-24 07:00:00 19.5 3 Sudeste 5 Sudeste 0 -- -- 56
2019-07-24 06:00:00 21.1 3 Oeste 6 Sudeste 0 -- -- 52
2019-07-24 05:00:00 24.1 4 Este 12 Sudeste 0 -- -- 44
2019-07-24 04:00:00 26.5 8 Norte 19 Sur 0 -- -- 39
2019-07-24 03:00:00 28.6 10 Sur 54 Oeste 0 -- -- 31
2019-07-24 02:00:00 29 13 Sudoeste 37 Sudoeste 0 -- -- 31
2019-07-24 01:00:00 27.4 14 Sur 24 Sur 0 -- -- 36
2019-07-24 00:00:00 27.8 14 Oeste 31 Sudoeste 0 -- -- 37
2019-07-23 23:00:00 28.7 16 Sudoeste 27 Oeste 0 -- -- 38
2019-07-23 22:00:00 29.5 3 Sudeste 27 Sudoeste 0 -- -- 34
2019-07-23 21:00:00 28.5 13 Sudoeste 64 Oeste 0 -- -- 38
2019-07-23 20:00:00 36.9 17 Sur 32 Sudoeste 0 -- -- 19
2019-07-23 19:00:00 38.5 13 Sur 42 Sur 0 -- -- 18
2019-07-23 18:00:00 39.3 18 Sur 34 Sur 0 -- -- 18
2019-07-23 17:00:00 39.2 15 Sur 35 Sudoeste 0 -- -- 18
2019-07-23 16:00:00 38.4 15 Sur 34 Sur 0 -- -- 19
2019-07-23 15:00:00 37.6 12 Sur 34 Sudoeste 0 -- -- 20
2019-07-23 14:00:00 36.6 11 Sur 25 Este 0 -- -- 20
2019-07-23 13:00:00 34.9 7 Noroeste 19 Sudoeste 0 -- -- 22
2019-07-23 12:00:00 33.7 10 Sudoeste 19 Sudoeste 0 -- -- 23
2019-07-23 11:00:00 31.9 4 Sudeste 16 Nordeste 0 -- -- 24
2019-07-23 10:00:00 28 11 Nordeste 15 Este 0 -- -- 30
2019-07-23 09:00:00 24.1 8 Este 12 Este 0 -- -- 48
2019-07-23 08:00:00 22.2 4 Este 10 Nordeste 0 -- -- 53
2019-07-23 07:00:00 22.9 7 Este 15 Sur 0 -- -- 50
2019-07-23 06:00:00 22.7 2 Sur 9 Sur 0 -- -- 54
2019-07-23 05:00:00 24.4 0 Calma 7 Este 0 -- -- 42
2019-07-23 04:00:00 25.9 5 Nordeste 12 Este 0 -- -- 39
2019-07-23 03:00:00 28.4 7 Este 20 Este 0 -- -- 30
2019-07-23 02:00:00 28.6 9 Nordeste 19 Este 0 -- -- 30
2019-07-23 01:00:00 29.8 6 Sur 40 Sur 0 -- -- 29
2019-07-23 00:00:00 31 24 Sudeste 44 Sur 0 -- -- 28
2019-07-22 23:00:00 32 27 Sudeste 46 Sudeste 0 -- -- 27
2019-07-22 22:00:00 33.3 21 Sudeste 36 Sur 0 -- -- 17
2019-07-22 21:00:00 35.3 15 Sur 36 Sudeste 0 -- -- 18
2019-07-22 20:00:00 36.8 20 Sur 39 Sudeste 0 -- -- 20
2019-07-22 19:00:00 37.9 22 Sur 41 Sudeste 0 -- -- 20
2019-07-22 18:00:00 38.1 19 Sur 40 Sudeste 0 -- -- 22
2019-07-22 17:00:00 38.6 16 Sudeste 32 Sur 0 -- -- 20
2019-07-22 16:00:00 38.6 14 Sur 32 Sur 0 -- -- 19
2019-07-22 15:00:00 37.4 13 Sudeste 33 Sur 0 -- -- 20
2019-07-22 14:00:00 36 14 Sudeste 29 Sudeste 0 -- -- 20
2019-07-22 13:00:00 34.5 11 Sudeste 24 Sudeste 0 -- -- 20
2019-07-22 12:00:00 32.7 8 Sur 19 Oeste 0 -- -- 21
2019-07-22 11:00:00 30.2 4 Nordeste 12 Nordeste 0 -- -- 25
2019-07-22 10:00:00 27.1 8 Nordeste 14 Nordeste 0 -- -- 34
2019-07-22 09:00:00 23.9 9 Este 15 Este 0 -- -- 40
2019-07-22 08:00:00 21 6 Este 13 Este 0 -- -- 42
2019-07-22 07:00:00 20.9 0 Calma 12 Nordeste 0 -- -- 43
2019-07-22 06:00:00 21.3 9 Nordeste 12 Nordeste 0 -- -- 41
2019-07-22 05:00:00 22.7 4 Nordeste 14 Este 0 -- -- 39
2019-07-22 04:00:00 23.9 8 Nordeste 14 Nordeste 0 -- -- 37
2019-07-22 03:00:00 27.7 5 Este 32 Sur 0 -- -- 34
2019-07-22 02:00:00 28.3 8 Oeste 49 Sur 0 -- -- 37
2019-07-22 01:00:00 29.4 28 Sudeste 50 Sudeste 0 -- -- 37
2019-07-22 00:00:00 30.5 26 Sur 42 Sudeste 0 -- -- 37
2019-07-21 23:00:00 31.5 25 Sur 37 Sudeste 0 -- -- 36
2019-07-21 22:00:00 32.8 22 Sur 38 Sur 0 -- -- 32
2019-07-21 21:00:00 34.4 18 Sur 31 Sur 0 -- -- 30
2019-07-21 20:00:00 35.7 8 Sur 21 Sur 0 -- -- 26
2019-07-21 19:00:00 37.5 9 Sudoeste 27 Sudoeste 0 -- -- 24
2019-07-21 18:00:00 39.5 8 Oeste 23 Sur 0 -- -- 22
2019-07-21 17:00:00 39.5 9 Sudoeste 24 Sudoeste 0 -- -- 22
2019-07-21 16:00:00 38.8 14 Sudeste 24 Sur 0 -- -- 23
2019-07-21 15:00:00 37.9 6 Sudeste 25 Sur 0 -- -- 24
2019-07-21 14:00:00 36.4 8 Sudoeste 21 Sur 0 -- -- 26
2019-07-21 13:00:00 35.1 8 Sur 25 Sudeste 0 -- -- 27
2019-07-21 12:00:00 33 7 Sur 18 Sur 0 -- -- 29
2019-07-21 11:00:00 30.1 5 Nordeste 12 Este 0 -- -- 34
2019-07-21 10:00:00 28.1 6 Nordeste 13 Nordeste 0 -- -- 39
2019-07-21 09:00:00 25 8 Este 13 Nordeste 0 -- -- 50
2019-07-21 08:00:00 22.7 5 Este 10 Este 0 -- -- 56
2019-07-21 07:00:00 22 8 Nordeste 12 Nordeste 0 -- -- 55
2019-07-21 06:00:00 23.2 2 Este 6 Este 0 -- -- 50
2019-07-21 05:00:00 25.2 5 Oeste 11 Norte 0 -- -- 45
2019-07-21 04:00:00 26.6 6 Nordeste 32 Sudeste 0 -- -- 43
2019-07-21 03:00:00 27.1 19 Sudeste 50 Sur 0 -- -- 43
2019-07-21 02:00:00 28 37 Sur 54 Sudeste 0 -- -- 41
2019-07-21 01:00:00 29.3 31 Sur 56 Sur 0 -- -- 40
2019-07-21 00:00:00 30.7 28 Sur 42 Sur 0 -- -- 38
2019-07-20 23:00:00 29.5 2 Este 5 Sur 0 -- -- 32
2019-07-20 22:00:00 32.9 4 Sur 8 Oeste 0 -- -- 29
2019-07-20 21:00:00 36 6 Oeste 18 Sudoeste 0 -- -- 25
2019-07-20 20:00:00 37.3 9 Oeste 23 Sudoeste 0 -- -- 23
2019-07-20 19:00:00 38 10 Oeste 38 Oeste 0 -- -- 22
2019-07-20 18:00:00 38.1 19 Oeste 34 Oeste 0 -- -- 22
2019-07-20 17:00:00 38.4 11 Oeste 25 Sudoeste 0 -- -- 22
2019-07-20 16:00:00 38.1 15 Oeste 30 Oeste 0 -- -- 22
2019-07-20 15:00:00 37.5 12 Sur 21 Sur 0 -- -- 23
2019-07-20 14:00:00 36 9 Sur 18 Este 0 -- -- 25
2019-07-20 13:00:00 34.1 9 Sur 21 Sudoeste 0 -- -- 29
2019-07-20 12:00:00 32 8 Sur 20 Sudoeste 0 -- -- 32
2019-07-20 11:00:00 30 12 Sudeste 20 Sudeste 0 -- -- 35
2019-07-20 10:00:00 28 6 Sudeste 14 Sudeste 0 -- -- 40
2019-07-20 09:00:00 25.1 5 Nordeste 12 Nordeste 0 -- -- 46
2019-07-20 08:00:00 21.5 5 Este 14 Este 0 -- -- 49
2019-07-20 07:00:00 20.3 7 Nordeste 11 Este 0 -- -- 49
2019-07-20 06:00:00 22.3 10 Nordeste 15 Este 0 -- -- 42
2019-07-20 05:00:00 24.5 9 Este 22 Este 0 -- -- 38
2019-07-20 04:00:00 25.9 8 Este 21 Este 0 -- -- 39
2019-07-20 03:00:00 27.1 9 Oeste 41 Sur 0 -- -- 35
2019-07-20 02:00:00 28 23 Sur 40 Sur 0 -- -- 29
2019-07-20 01:00:00 29.7 30 Sur 46 Sur 0 -- -- 26
2019-07-20 00:00:00 31.3 20 Sur 40 Sur 0 -- -- 22
2019-07-19 23:00:00 32.7 20 Sur 31 Sur 0 -- -- 21
2019-07-19 22:00:00 32.6 5 Sur 9 Sudoeste 0 -- -- 30
2019-07-19 21:00:00 35 4 Sudoeste 20 Oeste 0 -- -- 24
2019-07-19 20:00:00 35.9 13 Oeste 24 Oeste 0 -- -- 23
2019-07-19 19:00:00 37.3 14 Oeste 30 Oeste 0 -- -- 20
2019-07-19 18:00:00 37.7 17 Oeste 33 Oeste 0 -- -- 21
2019-07-19 17:00:00 37.3 10 Sudoeste 28 Sudoeste 0 -- -- 22
2019-07-19 16:00:00 37.6 16 Sudoeste 35 Oeste 0 -- -- 22
2019-07-19 15:00:00 35.3 14 Oeste 32 Oeste 0 -- -- 25
2019-07-19 14:00:00 35.7 10 Sudoeste 23 Sur 0 -- -- 27
2019-07-19 13:00:00 33.5 8 Sudoeste 17 Sudoeste 0 -- -- 32
2019-07-19 12:00:00 31.2 5 Oeste 14 Oeste 0 -- -- 35
2019-07-19 11:00:00 28.9 5 Norte 14 Este 0 -- -- 39
2019-07-19 10:00:00 26 9 Este 15 Este 0 -- -- 44
2019-07-19 09:00:00 23.1 9 Este 17 Este 0 -- -- 48
2019-07-19 08:00:00 20.9 11 Este 17 Este 0 -- -- 51
2019-07-19 07:00:00 20.4 9 Este 17 Este 0 -- -- 52
2019-07-19 06:00:00 21.1 10 Este 19 Este 0 -- -- 50
2019-07-19 05:00:00 21.8 9 Este 19 Este 0 -- -- 49
2019-07-19 04:00:00 22.6 11 Este 22 Este 0 -- -- 49
2019-07-19 03:00:00 23.4 14 Nordeste 24 Este 0 -- -- 47
2019-07-19 02:00:00 24.9 16 Nordeste 28 Nordeste 0 -- -- 45
2019-07-19 01:00:00 26.5 19 Nordeste 31 Nordeste 0 -- -- 42
2019-07-19 00:00:00 28.6 21 Nordeste 36 Nordeste 0 -- -- 39